sensor_id;sensor_type;location;lat;lon;timestamp;pressure;altitude;pressure_sealevel;temperature;humidity
58622;BME280;44389;51.578;5.456;2022-08-19T00:00:27;101234.72;;;15.38;100.00
58622;BME280;44389;51.578;5.456;2022-08-19T00:02:53;101235.53;;;15.34;100.00
58622;BME280;44389;51.578;5.456;2022-08-19T00:05:20;101233.66;;;15.27;100.00
58622;BME280;44389;51.578;5.456;2022-08-19T00:07:48;101230.28;;;15.31;100.00
58622;BME280;44389;51.578;5.456;2022-08-19T00:10:14;101235.63;;;15.40;100.00
58622;BME280;44389;51.578;5.456;2022-08-19T00:12:40;101234.00;;;15.45;100.00
58622;BME280;44389;51.578;5.456;2022-08-19T00:15:07;101233.06;;;15.43;100.00
58622;BME280;44389;51.578;5.456;2022-08-19T00:17:36;101227.09;;;15.49;100.00
58622;BME280;44389;51.578;5.456;2022-08-19T00:20:03;101230.50;;;15.46;100.00
58622;BME280;44389;51.578;5.456;2022-08-19T00:22:28;101230.59;;;15.50;100.00
58622;BME280;44389;51.578;5.456;2022-08-19T00:24:54;101225.41;;;15.53;100.00
58622;BME280;44389;51.578;5.456;2022-08-19T00:27:19;101224.34;;;15.38;100.00
58622;BME280;44389;51.578;5.456;2022-08-19T00:29:44;101227.63;;;15.28;100.00
58622;BME280;44389;51.578;5.456;2022-08-19T00:32:09;101229.25;;;15.21;100.00
58622;BME280;44389;51.578;5.456;2022-08-19T00:34:35;101234.25;;;15.09;100.00
58622;BME280;44389;51.578;5.456;2022-08-19T00:37:00;101233.16;;;14.97;100.00
58622;BME280;44389;51.578;5.456;2022-08-19T00:39:26;101240.91;;;14.94;100.00
58622;BME280;44389;51.578;5.456;2022-08-19T00:41:51;101245.16;;;14.91;100.00
58622;BME280;44389;51.578;5.456;2022-08-19T00:44:24;101241.50;;;14.79;100.00
58622;BME280;44389;51.578;5.456;2022-08-19T00:46:51;101240.47;;;14.70;100.00
58622;BME280;44389;51.578;5.456;2022-08-19T00:49:26;101241.13;;;14.61;100.00
58622;BME280;44389;51.578;5.456;2022-08-19T00:51:59;101235.81;;;14.55;100.00
58622;BME280;44389;51.578;5.456;2022-08-19T00:54:25;101232.44;;;14.59;100.00
58622;BME280;44389;51.578;5.456;2022-08-19T00:56:52;101232.28;;;14.51;100.00
58622;BME280;44389;51.578;5.456;2022-08-19T00:59:18;101234.94;;;14.54;100.00
58622;BME280;44389;51.578;5.456;2022-08-19T01:01:45;101232.38;;;14.56;100.00
58622;BME280;44389;51.578;5.456;2022-08-19T01:04:11;101235.94;;;14.61;100.00
58622;BME280;44389;51.578;5.456;2022-08-19T01:06:38;101234.19;;;14.60;100.00
58622;BME280;44389;51.578;5.456;2022-08-19T01:09:04;101227.47;;;14.68;100.00
58622;BME280;44389;51.578;5.456;2022-08-19T01:11:33;101245.47;;;14.62;100.00
58622;BME280;44389;51.578;5.456;2022-08-19T01:14:00;101233.34;;;14.61;100.00
58622;BME280;44389;51.578;5.456;2022-08-19T01:16:27;101239.56;;;14.69;100.00
58622;BME280;44389;51.578;5.456;2022-08-19T01:18:54;101246.69;;;14.79;100.00
58622;BME280;44389;51.578;5.456;2022-08-19T01:21:34;101241.63;;;14.86;100.00
58622;BME280;44389;51.578;5.456;2022-08-19T01:24:03;101233.69;;;14.78;100.00
58622;BME280;44389;51.578;5.456;2022-08-19T01:26:29;101229.41;;;14.78;100.00
58622;BME280;44389;51.578;5.456;2022-08-19T01:28:56;101229.06;;;14.63;100.00
58622;BME280;44389;51.578;5.456;2022-08-19T01:31:24;101234.00;;;14.51;100.00
58622;BME280;44389;51.578;5.456;2022-08-19T01:33:51;101232.09;;;14.40;100.00
58622;BME280;44389;51.578;5.456;2022-08-19T01:36:31;101235.47;;;14.36;100.00
58622;BME280;44389;51.578;5.456;2022-08-19T01:38:57;101234.53;;;14.34;100.00
58622;BME280;44389;51.578;5.456;2022-08-19T01:41:24;101235.38;;;14.33;100.00
58622;BME280;44389;51.578;5.456;2022-08-19T01:43:50;101234.41;;;14.28;100.00
58622;BME280;44389;51.578;5.456;2022-08-19T01:46:17;101232.56;;;14.21;100.00
58622;BME280;44389;51.578;5.456;2022-08-19T01:48:45;101232.41;;;14.13;100.00
58622;BME280;44389;51.578;5.456;2022-08-19T01:51:11;101227.91;;;14.06;100.00
58622;BME280;44389;51.578;5.456;2022-08-19T01:53:37;101225.16;;;13.98;100.00
58622;BME280;44389;51.578;5.456;2022-08-19T01:56:03;101226.78;;;13.93;100.00
58622;BME280;44389;51.578;5.456;2022-08-19T01:58:36;101229.47;;;13.97;100.00
58622;BME280;44389;51.578;5.456;2022-08-19T02:01:04;101233.91;;;14.03;100.00
58622;BME280;44389;51.578;5.456;2022-08-19T02:03:30;101237.38;;;14.02;100.00
58622;BME280;44389;51.578;5.456;2022-08-19T02:06:00;101240.69;;;13.98;100.00
58622;BME280;44389;51.578;5.456;2022-08-19T02:08:28;101235.59;;;14.01;100.00
58622;BME280;44389;51.578;5.456;2022-08-19T02:10:53;101242.44;;;13.97;100.00
58622;BME280;44389;51.578;5.456;2022-08-19T02:13:19;101240.78;;;14.01;100.00
58622;BME280;44389;51.578;5.456;2022-08-19T02:15:45;101239.94;;;14.02;100.00
58622;BME280;44389;51.578;5.456;2022-08-19T02:18:10;101251.13;;;13.99;100.00
58622;BME280;44389;51.578;5.456;2022-08-19T02:20:37;101260.53;;;13.96;100.00
58622;BME280;44389;51.578;5.456;2022-08-19T02:23:04;101252.16;;;14.08;100.00
58622;BME280;44389;51.578;5.456;2022-08-19T02:25:29;101246.94;;;14.06;100.00
58622;BME280;44389;51.578;5.456;2022-08-19T02:27:54;101247.78;;;14.05;100.00
58622;BME280;44389;51.578;5.456;2022-08-19T02:30:20;101238.19;;;14.01;100.00
58622;BME280;44389;51.578;5.456;2022-08-19T02:32:46;101248.81;;;14.13;100.00
58622;BME280;44389;51.578;5.456;2022-08-19T02:35:13;101260.16;;;14.19;100.00
58622;BME280;44389;51.578;5.456;2022-08-19T02:37:40;101266.94;;;14.13;100.00
58622;BME280;44389;51.578;5.456;2022-08-19T02:40:23;101257.59;;;14.20;100.00
58622;BME280;44389;51.578;5.456;2022-08-19T02:42:49;101259.97;;;14.09;100.00
58622;BME280;44389;51.578;5.456;2022-08-19T02:45:14;101254.13;;;14.20;100.00
58622;BME280;44389;51.578;5.456;2022-08-19T02:47:40;101260.91;;;14.13;100.00
58622;BME280;44389;51.578;5.456;2022-08-19T02:50:06;101267.13;;;14.23;100.00
58622;BME280;44389;51.578;5.456;2022-08-19T02:52:32;101268.88;;;14.22;100.00
58622;BME280;44389;51.578;5.456;2022-08-19T02:54:58;101273.44;;;14.34;100.00
58622;BME280;44389;51.578;5.456;2022-08-19T02:57:24;101278.72;;;14.37;100.00
58622;BME280;44389;51.578;5.456;2022-08-19T02:59:49;101270.19;;;14.44;100.00
58622;BME280;44389;51.578;5.456;2022-08-19T03:02:15;101270.94;;;14.39;100.00
58622;BME280;44389;51.578;5.456;2022-08-19T03:04:41;101270.16;;;14.43;100.00
58622;BME280;44389;51.578;5.456;2022-08-19T03:07:07;101267.59;;;14.44;100.00
58622;BME280;44389;51.578;5.456;2022-08-19T03:09:33;101266.06;;;14.54;100.00
58622;BME280;44389;51.578;5.456;2022-08-19T03:12:02;101258.03;;;14.42;100.00
58622;BME280;44389;51.578;5.456;2022-08-19T03:14:30;101261.84;;;14.59;100.00
58622;BME280;44389;51.578;5.456;2022-08-19T03:16:55;101259.47;;;14.69;100.00
58622;BME280;44389;51.578;5.456;2022-08-19T03:19:21;101261.28;;;14.73;100.00
58622;BME280;44389;51.578;5.456;2022-08-19T03:21:46;101266.44;;;14.71;100.00
58622;BME280;44389;51.578;5.456;2022-08-19T03:24:13;101265.78;;;14.83;100.00
58622;BME280;44389;51.578;5.456;2022-08-19T03:26:40;101270.66;;;14.66;100.00
58622;BME280;44389;51.578;5.456;2022-08-19T03:29:08;101269.19;;;14.80;100.00
58622;BME280;44389;51.578;5.456;2022-08-19T03:31:35;101257.94;;;14.78;100.00
58622;BME280;44389;51.578;5.456;2022-08-19T03:34:01;101260.56;;;14.81;100.00
58622;BME280;44389;51.578;5.456;2022-08-19T03:36:26;101265.00;;;14.87;100.00
58622;BME280;44389;51.578;5.456;2022-08-19T03:38:55;101262.16;;;14.73;100.00
58622;BME280;44389;51.578;5.456;2022-08-19T03:41:24;101260.63;;;14.85;100.00
58622;BME280;44389;51.578;5.456;2022-08-19T03:43:50;101260.53;;;14.78;100.00
58622;BME280;44389;51.578;5.456;2022-08-19T03:46:21;101260.38;;;14.71;100.00
58622;BME280;44389;51.578;5.456;2022-08-19T03:48:47;101250.81;;;14.68;100.00
58622;BME280;44389;51.578;5.456;2022-08-19T03:51:18;101253.41;;;14.68;100.00
58622;BME280;44389;51.578;5.456;2022-08-19T03:53:45;101248.00;;;14.59;100.00
58622;BME280;44389;51.578;5.456;2022-08-19T03:56:11;101246.97;;;14.49;100.00
58622;BME280;44389;51.578;5.456;2022-08-19T03:58:37;101250.41;;;14.49;100.00
58622;BME280;44389;51.578;5.456;2022-08-19T04:01:08;101248.50;;;14.41;100.00
58622;BME280;44389;51.578;5.456;2022-08-19T04:03:33;101247.78;;;14.46;100.00
58622;BME280;44389;51.578;5.456;2022-08-19T04:06:16;101257.03;;;14.33;100.00
58622;BME280;44389;51.578;5.456;2022-08-19T04:08:43;101258.00;;;14.40;100.00
58622;BME280;44389;51.578;5.456;2022-08-19T04:11:10;101264.78;;;14.32;100.00
58622;BME280;44389;51.578;5.456;2022-08-19T04:13:37;101258.53;;;14.24;100.00
58622;BME280;44389;51.578;5.456;2022-08-19T04:16:03;101253.19;;;14.16;100.00
58622;BME280;44389;51.578;5.456;2022-08-19T04:18:29;101247.13;;;14.15;100.00
58622;BME280;44389;51.578;5.456;2022-08-19T04:20:55;101259.19;;;14.13;100.00
58622;BME280;44389;51.578;5.456;2022-08-19T04:23:22;101265.13;;;14.08;100.00
58622;BME280;44389;51.578;5.456;2022-08-19T04:25:47;101264.09;;;14.01;100.00
58622;BME280;44389;51.578;5.456;2022-08-19T04:28:12;101260.44;;;13.93;100.00
58622;BME280;44389;51.578;5.456;2022-08-19T04:30:47;101256.78;;;13.81;100.00
58622;BME280;44389;51.578;5.456;2022-08-19T04:33:15;101253.22;;;13.78;100.00
58622;BME280;44389;51.578;5.456;2022-08-19T04:35:44;101259.84;;;13.65;100.00
58622;BME280;44389;51.578;5.456;2022-08-19T04:38:11;101247.06;;;13.73;100.00
58622;BME280;44389;51.578;5.456;2022-08-19T04:40:44;101248.06;;;13.79;100.00
58622;BME280;44389;51.578;5.456;2022-08-19T04:43:29;101245.34;;;13.73;100.00
58622;BME280;44389;51.578;5.456;2022-08-19T04:45:55;101247.78;;;13.67;100.00
58622;BME280;44389;51.578;5.456;2022-08-19T04:48:21;101252.97;;;13.67;100.00
58622;BME280;44389;51.578;5.456;2022-08-19T04:50:53;101254.91;;;13.76;100.00
58622;BME280;44389;51.578;5.456;2022-08-19T04:53:27;101255.50;;;13.64;100.00
58622;BME280;44389;51.578;5.456;2022-08-19T04:55:56;101254.88;;;13.74;100.00
58622;BME280;44389;51.578;5.456;2022-08-19T04:58:23;101260.66;;;13.62;100.00
58622;BME280;44389;51.578;5.456;2022-08-19T05:00:49;101263.56;;;13.76;100.00
58622;BME280;44389;51.578;5.456;2022-08-19T05:03:16;101272.22;;;13.78;100.00
58622;BME280;44389;51.578;5.456;2022-08-19T05:05:45;101273.97;;;13.79;100.00
58622;BME280;44389;51.578;5.456;2022-08-19T05:08:14;101266.22;;;13.79;100.00
58622;BME280;44389;51.578;5.456;2022-08-19T05:10:43;101279.34;;;13.87;100.00
58622;BME280;44389;51.578;5.456;2022-08-19T05:13:09;101281.13;;;13.90;100.00
58622;BME280;44389;51.578;5.456;2022-08-19T05:15:35;101282.06;;;13.92;100.00
58622;BME280;44389;51.578;5.456;2022-08-19T05:18:01;101285.22;;;14.20;100.00
58622;BME280;44389;51.578;5.456;2022-08-19T05:20:45;101280.31;;;14.32;100.00
58622;BME280;44389;51.578;5.456;2022-08-19T05:23:29;101290.13;;;14.47;100.00
58622;BME280;44389;51.578;5.456;2022-08-19T05:25:54;101293.72;;;14.54;100.00
58622;BME280;44389;51.578;5.456;2022-08-19T05:28:20;101301.72;;;14.63;100.00
58622;BME280;44389;51.578;5.456;2022-08-19T05:30:45;101308.00;;;14.74;100.00
58622;BME280;44389;51.578;5.456;2022-08-19T05:33:11;101305.59;;;14.84;100.00
58622;BME280;44389;51.578;5.456;2022-08-19T05:35:38;101312.59;;;14.88;100.00
58622;BME280;44389;51.578;5.456;2022-08-19T05:38:04;101317.03;;;14.95;100.00
58622;BME280;44389;51.578;5.456;2022-08-19T05:40:30;101314.56;;;15.01;100.00
58622;BME280;44389;51.578;5.456;2022-08-19T05:42:55;101318.09;;;15.03;100.00
58622;BME280;44389;51.578;5.456;2022-08-19T05:45:21;101319.06;;;15.10;100.00
58622;BME280;44389;51.578;5.456;2022-08-19T05:47:47;101312.19;;;15.12;100.00
58622;BME280;44389;51.578;5.456;2022-08-19T05:50:12;101313.09;;;15.15;100.00
58622;BME280;44389;51.578;5.456;2022-08-19T05:52:38;101311.47;;;15.21;100.00
58622;BME280;44389;51.578;5.456;2022-08-19T05:55:03;101315.84;;;15.23;100.00
58622;BME280;44389;51.578;5.456;2022-08-19T05:57:29;101314.19;;;15.28;100.00
58622;BME280;44389;51.578;5.456;2022-08-19T05:59:55;101308.25;;;15.34;100.00
58622;BME280;44389;51.578;5.456;2022-08-19T06:02:21;101305.78;;;15.40;100.00
58622;BME280;44389;51.578;5.456;2022-08-19T06:04:47;101303.22;;;15.43;100.00
58622;BME280;44389;51.578;5.456;2022-08-19T06:07:12;101294.59;;;15.46;100.00
58622;BME280;44389;51.578;5.456;2022-08-19T06:09:38;101304.16;;;15.48;100.00
58622;BME280;44389;51.578;5.456;2022-08-19T06:12:03;101296.41;;;15.52;100.00
58622;BME280;44389;51.578;5.456;2022-08-19T06:14:31;101292.13;;;15.54;100.00
58622;BME280;44389;51.578;5.456;2022-08-19T06:16:59;101285.28;;;15.59;100.00
58622;BME280;44389;51.578;5.456;2022-08-19T06:19:27;101286.19;;;15.61;100.00
58622;BME280;44389;51.578;5.456;2022-08-19T06:21:56;101288.00;;;15.68;100.00
58622;BME280;44389;51.578;5.456;2022-08-19T06:24:25;101293.28;;;15.71;100.00
58622;BME280;44389;51.578;5.456;2022-08-19T06:26:51;101294.22;;;15.76;100.00
58622;BME280;44389;51.578;5.456;2022-08-19T06:29:19;101290.03;;;15.85;100.00
58622;BME280;44389;51.578;5.456;2022-08-19T06:31:47;101296.09;;;15.87;100.00
58622;BME280;44389;51.578;5.456;2022-08-19T06:34:14;101297.06;;;15.92;100.00
58622;BME280;44389;51.578;5.456;2022-08-19T06:36:46;101298.94;;;16.02;100.00
58622;BME280;44389;51.578;5.456;2022-08-19T06:39:15;101291.19;;;16.04;100.00
58622;BME280;44389;51.578;5.456;2022-08-19T06:41:46;101292.16;;;16.12;100.00
58622;BME280;44389;51.578;5.456;2022-08-19T06:44:13;101295.69;;;16.17;100.00
58622;BME280;44389;51.578;5.456;2022-08-19T06:46:40;101298.41;;;16.26;100.00
58622;BME280;44389;51.578;5.456;2022-08-19T06:49:06;101298.50;;;16.33;100.00
58622;BME280;44389;51.578;5.456;2022-08-19T06:51:33;101295.09;;;16.38;100.00
58622;BME280;44389;51.578;5.456;2022-08-19T06:53:59;101302.06;;;16.41;100.00
58622;BME280;44389;51.578;5.456;2022-08-19T06:56:28;101298.72;;;16.50;100.00
58622;BME280;44389;51.578;5.456;2022-08-19T06:59:06;101300.47;;;16.52;100.00
58622;BME280;44389;51.578;5.456;2022-08-19T07:01:37;101298.84;;;16.60;100.00
58622;BME280;44389;51.578;5.456;2022-08-19T07:04:06;101304.16;;;16.70;100.00
58622;BME280;44389;51.578;5.456;2022-08-19T07:06:32;101294.75;;;16.83;100.00
58622;BME280;44389;51.578;5.456;2022-08-19T07:08:58;101304.34;;;16.88;100.00
58622;BME280;44389;51.578;5.456;2022-08-19T07:11:24;101298.47;;;17.03;100.00
58622;BME280;44389;51.578;5.456;2022-08-19T07:13:50;101301.16;;;17.13;100.00
58622;BME280;44389;51.578;5.456;2022-08-19T07:16:18;101310.75;;;17.17;100.00
58622;BME280;44389;51.578;5.456;2022-08-19T07:18:48;101312.66;;;17.36;100.00
58622;BME280;44389;51.578;5.456;2022-08-19T07:21:17;101322.25;;;17.39;100.00
58622;BME280;44389;51.578;5.456;2022-08-19T07:23:43;101321.53;;;17.57;100.00
58622;BME280;44389;51.578;5.456;2022-08-19T07:26:11;101323.28;;;17.55;100.00
58622;BME280;44389;51.578;5.456;2022-08-19T07:28:37;101328.63;;;17.73;100.00
58622;BME280;44389;51.578;5.456;2022-08-19T07:31:05;101333.00;;;17.77;100.00
58622;BME280;44389;51.578;5.456;2022-08-19T07:33:31;101333.03;;;17.85;100.00
58622;BME280;44389;51.578;5.456;2022-08-19T07:35:57;101328.91;;;18.14;100.00
58622;BME280;44389;51.578;5.456;2022-08-19T07:38:23;101328.03;;;18.08;100.00
58622;BME280;44389;51.578;5.456;2022-08-19T07:40:48;101326.25;;;18.06;100.00
58622;BME280;44389;51.578;5.456;2022-08-19T07:43:14;101334.19;;;18.20;100.00
58622;BME280;44389;51.578;5.456;2022-08-19T07:45:40;101336.81;;;18.24;100.00
58622;BME280;44389;51.578;5.456;2022-08-19T07:48:05;101332.47;;;18.25;100.00
58622;BME280;44389;51.578;5.456;2022-08-19T07:50:31;101337.69;;;18.25;100.00
58622;BME280;44389;51.578;5.456;2022-08-19T07:52:56;101346.41;;;18.27;100.00
58622;BME280;44389;51.578;5.456;2022-08-19T07:55:24;101355.19;;;18.41;100.00
58622;BME280;44389;51.578;5.456;2022-08-19T07:57:50;101353.47;;;18.48;99.45
58622;BME280;44389;51.578;5.456;2022-08-19T08:00:17;101349.09;;;18.49;99.01
58622;BME280;44389;51.578;5.456;2022-08-19T08:02:42;101354.41;;;18.58;98.44
58622;BME280;44389;51.578;5.456;2022-08-19T08:05:08;101354.41;;;18.64;98.02
58622;BME280;44389;51.578;5.456;2022-08-19T08:07:52;101356.22;;;18.81;97.06
58622;BME280;44389;51.578;5.456;2022-08-19T08:10:36;101351.03;;;18.90;96.01
58622;BME280;44389;51.578;5.456;2022-08-19T08:13:02;101357.97;;;18.83;95.56
58622;BME280;44389;51.578;5.456;2022-08-19T08:15:30;101357.94;;;18.77;95.53
58622;BME280;44389;51.578;5.456;2022-08-19T08:17:55;101359.78;;;18.97;95.78
58622;BME280;44389;51.578;5.456;2022-08-19T08:20:22;101359.81;;;19.07;94.58
58622;BME280;44389;51.578;5.456;2022-08-19T08:22:48;101358.09;;;19.13;94.48
58622;BME280;44389;51.578;5.456;2022-08-19T08:25:32;101362.44;;;19.14;93.10
58622;BME280;44389;51.578;5.456;2022-08-19T08:27:58;101370.31;;;19.20;92.85
58622;BME280;44389;51.578;5.456;2022-08-19T08:30:26;101377.25;;;19.07;92.93
58622;BME280;44389;51.578;5.456;2022-08-19T08:32:52;101377.25;;;19.16;93.60
58622;BME280;44389;51.578;5.456;2022-08-19T08:35:20;101381.59;;;19.03;92.81
58622;BME280;44389;51.578;5.456;2022-08-19T08:37:47;101385.94;;;19.06;93.26
58622;BME280;44389;51.578;5.456;2022-08-19T08:40:56;101393.81;;;19.20;93.39
58622;BME280;44389;51.578;5.456;2022-08-19T08:43:22;101389.47;;;19.19;93.05
58622;BME280;44389;51.578;5.456;2022-08-19T08:46:11;101397.28;;;19.13;92.90
58622;BME280;44389;51.578;5.456;2022-08-19T08:48:59;101406.00;;;19.21;93.18
58622;BME280;44389;51.578;5.456;2022-08-19T08:51:52;101399.97;;;19.42;91.78
58622;BME280;44389;51.578;5.456;2022-08-19T08:54:20;101401.69;;;19.41;90.45
58622;BME280;44389;51.578;5.456;2022-08-19T08:56:51;101397.34;;;19.48;90.51
58622;BME280;44389;51.578;5.456;2022-08-19T08:59:29;101388.66;;;19.72;90.22
58622;BME280;44389;51.578;5.456;2022-08-19T09:01:57;101386.91;;;19.71;88.48
58622;BME280;44389;51.578;5.456;2022-08-19T09:04:23;101389.56;;;19.84;88.76
58622;BME280;44389;51.578;5.456;2022-08-19T09:06:54;101386.91;;;19.78;87.84
58622;BME280;44389;51.578;5.456;2022-08-19T09:09:30;101383.44;;;19.88;88.30
58622;BME280;44389;51.578;5.456;2022-08-19T09:14:53;101385.13;;;20.38;86.74
58622;BME280;44389;51.578;5.456;2022-08-19T09:17:27;101382.47;;;20.51;85.13
58622;BME280;44389;51.578;5.456;2022-08-19T09:20:02;101385.94;;;20.70;84.11
58622;BME280;44389;51.578;5.456;2022-08-19T09:22:32;101384.19;;;20.70;83.65
58622;BME280;44389;51.578;5.456;2022-08-19T09:24:57;101393.78;;;20.62;83.25
58622;BME280;44389;51.578;5.456;2022-08-19T09:27:24;101390.34;;;20.45;83.27
58622;BME280;44389;51.578;5.456;2022-08-19T09:29:51;101397.38;;;20.27;83.20
58622;BME280;44389;51.578;5.456;2022-08-19T09:32:16;101395.63;;;20.07;84.73
58622;BME280;44389;51.578;5.456;2022-08-19T09:34:43;101403.50;;;19.95;85.73
58622;BME280;44389;51.578;5.456;2022-08-19T09:37:09;101405.25;;;19.93;86.16
58622;BME280;44389;51.578;5.456;2022-08-19T09:39:35;101403.50;;;19.97;86.38
58622;BME280;44389;51.578;5.456;2022-08-19T09:42:00;101407.00;;;20.00;85.87
58622;BME280;44389;51.578;5.456;2022-08-19T09:44:25;101400.88;;;20.07;85.50
58622;BME280;44389;51.578;5.456;2022-08-19T09:46:51;101400.88;;;20.07;84.93
58622;BME280;44389;51.578;5.456;2022-08-19T09:49:18;101399.09;;;20.31;84.21
58622;BME280;44389;51.578;5.456;2022-08-19T09:51:45;101399.09;;;20.33;83.92
58622;BME280;44389;51.578;5.456;2022-08-19T09:54:14;101405.16;;;20.53;83.23
58622;BME280;44389;51.578;5.456;2022-08-19T09:56:39;101404.28;;;20.50;82.87
58622;BME280;44389;51.578;5.456;2022-08-19T09:59:04;101402.56;;;20.46;83.46
58622;BME280;44389;51.578;5.456;2022-08-19T10:01:31;101413.91;;;20.49;83.31
58622;BME280;44389;51.578;5.456;2022-08-19T10:03:59;101415.59;;;20.69;83.22
58622;BME280;44389;51.578;5.456;2022-08-19T10:06:27;101417.34;;;20.78;82.21
58622;BME280;44389;51.578;5.456;2022-08-19T10:08:56;101417.34;;;20.76;82.11
58622;BME280;44389;51.578;5.456;2022-08-19T10:11:21;101419.94;;;20.79;81.90
58622;BME280;44389;51.578;5.456;2022-08-19T10:13:48;101412.13;;;20.58;83.21
58622;BME280;44389;51.578;5.456;2022-08-19T10:16:17;101410.34;;;20.64;82.23
58622;BME280;44389;51.578;5.456;2022-08-19T10:18:44;101401.41;;;21.24;80.00
58622;BME280;44389;51.578;5.456;2022-08-19T10:21:13;101405.41;;;21.81;77.75
58622;BME280;44389;51.578;5.456;2022-08-19T10:23:40;101410.47;;;21.99;76.08
58622;BME280;44389;51.578;5.456;2022-08-19T10:26:09;101405.22;;;21.99;75.84
58622;BME280;44389;51.578;5.456;2022-08-19T10:28:36;101407.06;;;21.90;75.09
58622;BME280;44389;51.578;5.456;2022-08-19T10:31:13;101408.91;;;21.77;75.68
58622;BME280;44389;51.578;5.456;2022-08-19T10:33:39;101406.41;;;21.63;76.45
58622;BME280;44389;51.578;5.456;2022-08-19T10:36:08;101414.38;;;21.43;77.07
58622;BME280;44389;51.578;5.456;2022-08-19T10:38:35;101407.47;;;21.26;77.70
58622;BME280;44389;51.578;5.456;2022-08-19T10:41:15;101409.31;;;21.13;78.36
58622;BME280;44389;51.578;5.456;2022-08-19T10:43:41;101408.50;;;20.99;78.41
58622;BME280;44389;51.578;5.456;2022-08-19T10:46:08;101412.84;;;21.08;78.66
58622;BME280;44389;51.578;5.456;2022-08-19T10:48:34;101406.69;;;21.16;79.86
58622;BME280;44389;51.578;5.456;2022-08-19T10:51:00;101405.63;;;21.41;77.56
58622;BME280;44389;51.578;5.456;2022-08-19T10:53:44;101402.81;;;21.76;75.96
58622;BME280;44389;51.578;5.456;2022-08-19T10:56:10;101402.63;;;21.95;75.45
58622;BME280;44389;51.578;5.456;2022-08-19T10:58:54;101396.28;;;22.22;74.87
58622;BME280;44389;51.578;5.456;2022-08-19T11:01:19;101396.28;;;22.22;72.73
58622;BME280;44389;51.578;5.456;2022-08-19T11:03:45;101389.97;;;22.42;73.06
58622;BME280;44389;51.578;5.456;2022-08-19T11:06:10;101396.16;;;22.38;71.33
58622;BME280;44389;51.578;5.456;2022-08-19T11:08:36;101401.44;;;22.28;72.36
58622;BME280;44389;51.578;5.456;2022-08-19T11:11:07;101399.59;;;22.41;72.51
58622;BME280;44389;51.578;5.456;2022-08-19T11:13:36;101401.44;;;22.28;72.88
58622;BME280;44389;51.578;5.456;2022-08-19T11:16:23;101392.44;;;22.56;72.36
58622;BME280;44389;51.578;5.456;2022-08-19T11:18:53;101391.50;;;22.61;71.88
58622;BME280;44389;51.578;5.456;2022-08-19T11:21:21;101382.38;;;22.89;70.24
58622;BME280;44389;51.578;5.456;2022-08-19T11:23:48;101386.81;;;22.85;69.48
58622;BME280;44389;51.578;5.456;2022-08-19T11:26:15;101393.06;;;22.78;68.88
58622;BME280;44389;51.578;5.456;2022-08-19T11:28:41;101399.00;;;22.89;69.23
58622;BME280;44389;51.578;5.456;2022-08-19T11:31:18;101391.53;;;23.25;68.50
58622;BME280;44389;51.578;5.456;2022-08-19T11:33:44;101385.13;;;23.99;66.09
58622;BME280;44389;51.578;5.456;2022-08-19T11:36:10;101392.34;;;24.82;63.33
58622;BME280;44389;51.578;5.456;2022-08-19T11:38:36;101382.66;;;25.61;60.06
58622;BME280;44389;51.578;5.456;2022-08-19T11:41:05;101385.28;;;25.97;57.68
58622;BME280;44389;51.578;5.456;2022-08-19T11:43:31;101375.03;;;26.19;56.48
58622;BME280;44389;51.578;5.456;2022-08-19T11:45:57;101370.03;;;26.73;54.35
58622;BME280;44389;51.578;5.456;2022-08-19T11:48:24;101372.47;;;27.09;53.10
58622;BME280;44389;51.578;5.456;2022-08-19T11:50:51;101364.41;;;27.40;52.53
58622;BME280;44389;51.578;5.456;2022-08-19T11:53:18;101371.19;;;27.49;52.87
58622;BME280;44389;51.578;5.456;2022-08-19T11:55:46;101370.59;;;28.18;48.95
58622;BME280;44389;51.578;5.456;2022-08-19T11:58:12;101373.59;;;28.34;50.02
58622;BME280;44389;51.578;5.456;2022-08-19T12:00:39;101378.34;;;28.48;49.62
58622;BME280;44389;51.578;5.456;2022-08-19T12:03:04;101372.00;;;28.29;49.51
58622;BME280;44389;51.578;5.456;2022-08-19T12:05:30;101374.78;;;28.49;49.16
58622;BME280;44389;51.578;5.456;2022-08-19T12:07:55;101379.38;;;28.20;48.98
58622;BME280;44389;51.578;5.456;2022-08-19T12:10:21;101381.03;;;27.98;49.31
58622;BME280;44389;51.578;5.456;2022-08-19T12:12:47;101377.59;;;27.42;49.80
58622;BME280;44389;51.578;5.456;2022-08-19T12:15:13;101386.66;;;27.05;52.27
58622;BME280;44389;51.578;5.456;2022-08-19T12:17:40;101381.25;;;26.48;52.00
58622;BME280;44389;51.578;5.456;2022-08-19T12:20:07;101388.13;;;26.24;54.32
58622;BME280;44389;51.578;5.456;2022-08-19T12:22:34;101383.06;;;25.80;55.68
58622;BME280;44389;51.578;5.456;2022-08-19T12:25:00;101377.56;;;25.89;56.80
58622;BME280;44389;51.578;5.456;2022-08-19T12:27:25;101369.13;;;25.75;56.21
58622;BME280;44389;51.578;5.456;2022-08-19T12:29:51;101375.91;;;26.20;55.93
58622;BME280;44389;51.578;5.456;2022-08-19T12:32:16;101367.03;;;26.84;53.13
58622;BME280;44389;51.578;5.456;2022-08-19T12:34:41;101368.50;;;27.22;51.88
58622;BME280;44389;51.578;5.456;2022-08-19T12:37:07;101359.22;;;27.36;51.93
58622;BME280;44389;51.578;5.456;2022-08-19T12:39:37;101361.56;;;27.18;52.61
58622;BME280;44389;51.578;5.456;2022-08-19T12:42:04;101362.00;;;27.33;52.03
58622;BME280;44389;51.578;5.456;2022-08-19T12:44:29;101357.63;;;28.11;50.83
58622;BME280;44389;51.578;5.456;2022-08-19T12:46:56;101361.31;;;27.81;51.04
58622;BME280;44389;51.578;5.456;2022-08-19T12:49:21;101362.13;;;27.56;51.49